Time;durP1;ratioP1;P1;durP2;ratioP2;P2;SDS_P1;SDS_P2;PMS_P1;PMS_P2;Temp;Humidity;BMP_temperature;BMP_pressure;BME280_temperature;BME280_humidity;BME280_pressure;Samples;Min_cycle;Max_cycle;Signal;HPM_P1;HPM_P2
2022/03/20 00:00:11;;;;;;;22.93;18.17;;;7.90;73.20;;;;;;5039927;28;20229;-78
2022/03/20 00:02:44;;;;;;;23.67;19.33;;;7.90;72.90;;;;;;5026810;28;20221;-78
2022/03/20 00:05:13;;;;;;;21.10;18.53;;;7.80;73.10;;;;;;5041940;28;20194;-78
2022/03/20 00:07:41;;;;;;;22.40;18.33;;;7.80;74.10;;;;;;5043048;28;20194;-78
2022/03/20 00:10:09;;;;;;;23.07;18.90;;;7.80;74.00;;;;;;5042310;28;20195;-78
2022/03/20 00:12:38;;;;;;;21.13;18.17;;;7.60;73.40;;;;;;5043725;28;20254;-78
2022/03/20 00:15:07;;;;;;;22.57;18.90;;;7.70;73.80;;;;;;5041289;28;20195;-78
2022/03/20 00:17:34;;;;;;;21.00;18.63;;;7.70;73.50;;;;;;5040981;28;20213;-78
2022/03/20 00:20:02;;;;;;;21.30;17.80;;;7.70;73.20;;;;;;5043696;28;20206;-78
2022/03/20 00:22:34;;;;;;;21.90;18.57;;;7.50;73.80;;;;;;5057195;28;20191;-78
2022/03/20 00:25:03;;;;;;;20.07;17.70;;;7.50;73.90;;;;;;5041029;28;20536;-78
2022/03/20 00:27:33;;;;;;;20.57;17.57;;;7.30;73.90;;;;;;5056958;28;20229;-78
2022/03/20 00:30:01;;;;;;;20.03;17.13;;;7.40;74.00;;;;;;5028547;28;20198;-78
2022/03/20 00:32:29;;;;;;;22.67;18.37;;;7.50;73.20;;;;;;5044713;28;20679;-78
2022/03/20 00:34:59;;;;;;;23.37;18.43;;;7.30;73.40;;;;;;5040503;28;20835;-78
2022/03/20 00:37:27;;;;;;;23.67;18.90;;;7.50;73.60;;;;;;5047125;28;20194;-78
2022/03/20 00:39:56;;;;;;;21.43;18.10;;;7.50;72.50;;;;;;5046014;28;20206;-78
2022/03/20 00:42:23;;;;;;;21.43;18.17;;;7.50;72.60;;;;;;5043409;28;20563;-77
2022/03/20 00:44:51;;;;;;;20.30;17.47;;;7.40;73.00;;;;;;5040688;28;20217;-78
2022/03/20 00:47:18;;;;;;;22.93;17.70;;;7.50;73.00;;;;;;5039820;28;20194;-78
2022/03/20 00:49:45;;;;;;;22.07;18.23;;;7.60;72.90;;;;;;5062225;28;20194;-78
2022/03/20 00:52:13;;;;;;;21.83;18.70;;;7.60;71.60;;;;;;5042769;28;20206;-78
2022/03/20 00:54:40;;;;;;;20.43;17.30;;;7.50;71.30;;;;;;5041857;28;20237;-78
2022/03/20 00:57:09;;;;;;;21.30;18.23;;;7.60;71.10;;;;;;5039433;28;20214;-78
2022/03/20 00:59:37;;;;;;;22.43;18.00;;;7.40;71.50;;;;;;5042482;28;20206;-78
2022/03/20 01:02:05;;;;;;;22.10;18.80;;;7.20;72.40;;;;;;5038861;28;20230;-78
2022/03/20 01:04:32;;;;;;;23.10;19.90;;;7.30;71.40;;;;;;5040469;28;20225;-78
2022/03/20 01:07:00;;;;;;;21.87;19.53;;;7.20;71.20;;;;;;5040867;28;20195;-78
2022/03/20 01:09:27;;;;;;;23.93;18.90;;;7.10;71.40;;;;;;5034502;28;20198;-77
2022/03/20 01:11:55;;;;;;;23.23;19.00;;;7.00;72.10;;;;;;5050429;28;20206;-78
2022/03/20 01:14:24;;;;;;;24.73;18.90;;;6.90;72.30;;;;;;5049184;28;20225;-78
2022/03/20 01:16:54;;;;;;;24.80;19.50;;;6.90;72.60;;;;;;5058840;28;20206;-78
2022/03/20 01:19:23;;;;;;;25.10;19.20;;;7.00;72.50;;;;;;5041519;28;20567;-78
2022/03/20 01:21:51;;;;;;;23.13;18.80;;;6.90;71.90;;;;;;5050811;28;20566;-78
2022/03/20 01:24:19;;;;;;;25.23;19.13;;;6.90;72.00;;;;;;5052416;28;20229;-78
2022/03/20 01:26:46;;;;;;;23.97;19.53;;;6.90;72.00;;;;;;5039805;28;20264;-78
2022/03/20 01:29:14;;;;;;;22.67;18.67;;;7.00;72.10;;;;;;5049131;28;20198;-78
2022/03/20 01:31:42;;;;;;;26.10;19.07;;;7.00;71.90;;;;;;5037545;28;20653;-78
2022/03/20 01:34:10;;;;;;;20.97;18.47;;;6.90;72.30;;;;;;5044362;28;20289;-78
2022/03/20 01:36:38;;;;;;;24.80;18.80;;;6.90;72.30;;;;;;5050939;28;20199;-78
2022/03/20 01:39:10;;;;;;;23.53;18.60;;;6.90;71.80;;;;;;5045836;28;20194;-78
2022/03/20 01:41:38;;;;;;;25.37;19.53;;;7.00;72.90;;;;;;5052421;28;20211;-78
2022/03/20 01:44:05;;;;;;;23.37;19.57;;;7.00;72.20;;;;;;5047876;28;20226;-78
2022/03/20 01:46:33;;;;;;;23.17;20.17;;;6.90;72.10;;;;;;5049474;28;20209;-78
2022/03/20 01:49:02;;;;;;;23.37;19.03;;;6.80;71.90;;;;;;5042137;28;20199;-78
2022/03/20 01:54:32;;;;;;;23.20;18.50;;;6.60;72.40;;;;;;5040769;28;20218;-77
2022/03/20 01:57:00;;;;;;;21.67;19.13;;;6.40;72.70;;;;;;5048998;28;20209;-77
2022/03/20 01:59:27;;;;;;;22.37;18.67;;;6.30;72.70;;;;;;5060228;28;20211;-77
2022/03/20 02:01:55;;;;;;;23.50;19.30;;;6.20;73.00;;;;;;5044708;28;20218;-77
2022/03/20 02:04:24;;;;;;;24.37;19.03;;;6.20;73.00;;;;;;5050632;28;20221;-78
2022/03/20 02:06:51;;;;;;;24.03;19.20;;;6.30;73.20;;;;;;5049151;28;20208;-78
2022/03/20 02:09:19;;;;;;;22.13;19.30;;;6.40;73.40;;;;;;5043003;28;20216;-78
2022/03/20 02:11:49;;;;;;;20.67;18.23;;;6.50;72.90;;;;;;5048357;28;20189;-78
2022/03/20 02:14:16;;;;;;;23.57;18.67;;;6.70;72.50;;;;;;5043601;28;20232;-78
2022/03/20 02:16:44;;;;;;;21.17;18.70;;;6.70;72.20;;;;;;5038500;28;20214;-78
2022/03/20 02:19:15;;;;;;;23.23;18.53;;;6.80;71.20;;;;;;5044768;28;20199;-78
2022/03/20 02:21:45;;;;;;;23.67;18.87;;;6.70;71.60;;;;;;5050138;28;20214;-78
2022/03/20 02:24:36;;;;;;;22.33;18.53;;;6.70;71.10;;;;;;5046749;28;20581;-78
2022/03/20 02:27:09;;;;;;;22.60;18.87;;;6.50;70.70;;;;;;5038390;28;20205;-78
2022/03/20 02:29:37;;;;;;;23.80;19.13;;;6.50;70.90;;;;;;5045637;28;20196;-78
2022/03/20 02:32:06;;;;;;;20.77;17.87;;;6.40;70.40;;;;;;5055820;28;20656;-78
2022/03/20 02:34:34;;;;;;;21.13;18.37;;;6.50;71.00;;;;;;5033058;28;20221;-78
2022/03/20 02:37:04;;;;;;;21.33;18.03;;;6.50;70.00;;;;;;5045291;28;20197;-78
2022/03/20 02:39:31;;;;;;;21.93;18.30;;;6.50;70.30;;;;;;5045553;28;20208;-78
2022/03/20 02:42:02;;;;;;;21.63;18.53;;;6.60;69.40;;;;;;5051296;28;20612;-78
2022/03/20 02:44:49;;;;;;;23.80;18.23;;;6.40;68.90;;;;;;5043054;28;20795;-77
2022/03/20 02:47:20;;;;;;;21.90;18.47;;;6.50;69.30;;;;;;5037748;28;20205;-78
2022/03/20 02:49:58;;;;;;;21.10;17.73;;;6.70;68.40;;;;;;5043312;28;20212;-78
2022/03/20 02:52:29;;;;;;;22.13;18.07;;;6.70;68.50;;;;;;5051153;28;20193;-78
2022/03/20 02:55:00;;;;;;;23.40;18.87;;;6.60;68.90;;;;;;5043857;28;20205;-78
2022/03/20 02:57:28;;;;;;;19.83;17.37;;;6.50;67.60;;;;;;5040384;28;20197;-77
2022/03/20 03:00:00;;;;;;;24.93;17.60;;;6.50;68.10;;;;;;5047075;28;20208;-77
2022/03/20 03:02:29;;;;;;;22.23;18.33;;;6.30;67.80;;;;;;5049510;28;20231;-78
2022/03/20 03:04:59;;;;;;;21.80;19.03;;;6.50;68.00;;;;;;5038512;28;20214;-78
2022/03/20 03:07:28;;;;;;;21.07;17.07;;;6.70;67.60;;;;;;5037430;28;20205;-78
2022/03/20 03:12:43;;;;;;;21.73;18.33;;;6.70;67.00;;;;;;5024839;28;20232;-78
2022/03/20 03:15:22;;;;;;;22.10;17.80;;;6.80;66.30;;;;;;5039328;28;20540;-77
2022/03/20 03:17:51;;;;;;;21.50;17.87;;;6.50;65.80;;;;;;5038403;28;20202;-78
2022/03/20 03:20:19;;;;;;;24.63;18.70;;;6.60;65.40;;;;;;5034443;28;20202;-78
2022/03/20 03:22:48;;;;;;;19.87;17.53;;;6.60;65.60;;;;;;5041244;28;20702;-78
2022/03/20 03:25:16;;;;;;;22.67;16.97;;;6.70;64.80;;;;;;5040149;28;20269;-78
2022/03/20 03:27:43;;;;;;;24.03;17.70;;;6.60;65.70;;;;;;5047529;28;20201;-78
2022/03/20 03:30:13;;;;;;;20.63;17.23;;;6.30;64.40;;;;;;5044129;28;20216;-78
2022/03/20 03:32:41;;;;;;;22.67;18.43;;;6.30;64.60;;;;;;5041036;28;20225;-78
2022/03/20 03:37:55;;;;;;;20.67;17.17;;;6.40;65.70;;;;;;5038840;28;20269;-77
2022/03/20 03:40:23;;;;;;;21.90;16.90;;;6.40;65.10;;;;;;5039796;28;20210;-78
2022/03/20 03:42:50;;;;;;;23.37;16.97;;;6.60;64.20;;;;;;5040260;28;20232;-78
2022/03/20 03:45:18;;;;;;;21.40;17.50;;;6.60;64.50;;;;;;5039569;28;21086;-77
2022/03/20 03:47:46;;;;;;;21.23;17.10;;;6.50;63.80;;;;;;5050933;28;20591;-78
2022/03/20 03:50:14;;;;;;;22.67;18.10;;;6.50;64.20;;;;;;5035957;28;20201;-78
2022/03/20 03:52:41;;;;;;;22.43;18.27;;;6.50;64.40;;;;;;5039914;28;20234;-78
2022/03/20 03:55:10;;;;;;;19.00;16.57;;;6.60;64.20;;;;;;5039896;28;20206;-78
2022/03/20 03:57:37;;;;;;;18.67;16.43;;;6.70;63.60;;;;;;5045106;28;20202;-77
2022/03/20 04:00:06;;;;;;;20.00;16.80;;;6.50;62.70;;;;;;5038472;28;20217;-77
2022/03/20 04:02:34;;;;;;;23.27;17.57;;;6.40;64.60;;;;;;5038456;28;20214;-77
2022/03/20 04:05:01;;;;;;;25.30;17.50;;;6.30;63.00;;;;;;5039559;28;20213;-77
2022/03/20 04:07:29;;;;;;;18.87;16.83;;;6.40;63.00;;;;;;5038691;28;20202;-78
2022/03/20 04:09:56;;;;;;;20.60;17.90;;;6.60;63.30;;;;;;5035062;28;20212;-78
2022/03/20 04:12:25;;;;;;;20.37;16.93;;;6.50;62.60;;;;;;5036641;28;20194;-77
2022/03/20 04:14:53;;;;;;;19.97;16.73;;;6.60;62.50;;;;;;5039069;28;20206;-78
2022/03/20 04:17:20;;;;;;;20.53;17.20;;;6.50;62.50;;;;;;5050160;28;20194;-77
2022/03/20 04:19:48;;;;;;;22.87;17.40;;;6.70;62.00;;;;;;5041402;28;20695;-77
2022/03/20 04:22:15;;;;;;;21.20;17.77;;;6.50;61.10;;;;;;5033014;28;20218;-77
2022/03/20 04:24:43;;;;;;;20.43;17.40;;;6.40;62.00;;;;;;5048346;28;20229;-77
2022/03/20 04:27:11;;;;;;;19.50;16.47;;;6.50;62.00;;;;;;5038781;28;20201;-77
2022/03/20 04:29:40;;;;;;;21.03;17.53;;;6.50;62.60;;;;;;5040854;28;20684;-78
2022/03/20 04:32:09;;;;;;;20.97;17.53;;;6.60;61.30;;;;;;5052069;28;20186;-78
2022/03/20 04:34:37;;;;;;;20.73;16.77;;;6.40;60.80;;;;;;5050282;28;20586;-77
2022/03/20 04:37:06;;;;;;;18.83;16.50;;;6.30;61.70;;;;;;5051093;28;20205;-80
2022/03/20 04:39:33;;;;;;;21.07;17.57;;;6.30;62.10;;;;;;5052056;28;20201;-79
2022/03/20 04:42:01;;;;;;;19.87;16.63;;;6.40;62.30;;;;;;5048554;28;20209;-77
2022/03/20 04:44:28;;;;;;;19.50;17.40;;;6.50;61.70;;;;;;5037553;28;20228;-77
2022/03/20 04:46:57;;;;;;;20.37;17.70;;;6.30;61.80;;;;;;5039762;28;20216;-78
2022/03/20 05:00:25;;;;;;;21.37;17.00;;;6.30;60.80;;;;;;5038400;28;20197;-80
2022/03/20 05:02:54;;;;;;;20.03;16.47;;;6.20;60.90;;;;;;5043726;28;20225;-77
2022/03/20 05:05:21;;;;;;;21.53;17.10;;;6.40;62.30;;;;;;5037133;28;20212;-78
2022/03/20 05:07:48;;;;;;;20.43;16.60;;;6.00;61.00;;;;;;5038613;28;20450;-81
2022/03/20 05:15:46;;;;;;;21.40;16.40;;;6.30;60.80;;;;;;5063466;28;20201;-77
2022/03/20 05:18:15;;;;;;;21.40;17.60;;;6.20;60.90;;;;;;5051829;28;20201;-77
2022/03/20 05:20:44;;;;;;;23.47;16.70;;;6.30;61.10;;;;;;5038982;28;20206;-81
2022/03/20 05:23:11;;;;;;;20.63;17.20;;;6.30;60.80;;;;;;5043976;28;20666;-77
2022/03/20 05:25:39;;;;;;;22.33;17.83;;;6.30;60.70;;;;;;5040297;28;20202;-77
2022/03/20 05:28:07;;;;;;;21.53;17.40;;;6.30;60.70;;;;;;5038045;28;20209;-78
2022/03/20 05:30:37;;;;;;;18.47;16.07;;;6.30;60.00;;;;;;5043957;28;20205;-73
2022/03/20 05:33:05;;;;;;;19.90;17.80;;;6.20;60.60;;;;;;5049281;28;20240;-74
2022/03/20 05:35:34;;;;;;;18.40;15.80;;;6.10;59.80;;;;;;5050830;28;20189;-74
2022/03/20 05:38:01;;;;;;;20.30;16.77;;;6.10;59.60;;;;;;5052269;28;20209;-74
2022/03/20 05:40:28;;;;;;;20.57;17.13;;;6.00;59.80;;;;;;5053223;28;20209;-73
2022/03/20 05:42:56;;;;;;;18.13;15.87;;;6.10;59.70;;;;;;5046783;28;20229;-73
2022/03/20 05:45:24;;;;;;;19.37;16.70;;;6.20;60.30;;;;;;5047175;28;20210;-74
2022/03/20 05:47:58;;;;;;;20.47;15.20;;;6.20;59.70;;;;;;5061023;28;20208;-74
2022/03/20 05:50:32;;;;;;;21.00;16.67;;;6.30;62.00;;;;;;5049461;28;20557;-75
2022/03/20 05:52:59;;;;;;;18.53;15.00;;;6.30;60.30;;;;;;5047998;28;20226;-75
2022/03/20 05:58:16;;;;;;;19.57;16.40;;;7.40;62.20;;;;;;4996342;28;20204;-73
2022/03/20 06:00:53;;;;;;;20.27;16.03;;;6.80;57.40;;;;;;5047792;28;20199;-73
2022/03/20 06:03:21;;;;;;;20.93;17.27;;;6.30;58.90;;;;;;5041807;28;20217;-73
2022/03/20 06:05:50;;;;;;;22.60;17.90;;;6.10;58.30;;;;;;5044386;28;20206;-73
2022/03/20 06:08:20;;;;;;;19.03;16.00;;;5.50;58.50;;;;;;5044920;28;20193;-73
2022/03/20 06:10:48;;;;;;;20.47;15.97;;;5.50;59.30;;;;;;5044412;28;20204;-73
2022/03/20 06:13:16;;;;;;;21.13;16.37;;;5.40;59.60;;;;;;5043374;28;20221;-73
2022/03/20 06:15:46;;;;;;;18.23;16.23;;;5.60;60.00;;;;;;5035662;28;20212;-73
2022/03/20 06:18:16;;;;;;;18.17;16.03;;;5.70;59.70;;;;;;5049340;28;20209;-73
2022/03/20 06:20:45;;;;;;;19.97;16.63;;;5.70;59.80;;;;;;5047606;28;20207;-73
2022/03/20 06:23:14;;;;;;;19.50;15.77;;;5.80;59.20;;;;;;5045016;28;20228;-73
2022/03/20 06:25:41;;;;;;;21.03;16.63;;;5.70;58.90;;;;;;5044075;28;20201;-73
2022/03/20 06:28:29;;;;;;;21.67;16.63;;;5.70;59.40;;;;;;5050244;28;20203;-73
2022/03/20 06:31:06;;;;;;;21.13;16.30;;;5.80;59.40;;;;;;5046582;28;20216;-73
2022/03/20 06:33:35;;;;;;;19.97;16.33;;;5.80;59.40;;;;;;5046173;28;20221;-74
2022/03/20 06:36:03;;;;;;;20.87;16.00;;;5.80;59.20;;;;;;5041348;28;20581;-74
2022/03/20 06:38:34;;;;;;;18.87;16.27;;;5.80;59.50;;;;;;5041278;28;20229;-73
2022/03/20 06:41:02;;;;;;;19.27;15.77;;;6.00;59.10;;;;;;5039566;28;20201;-73
2022/03/20 06:43:30;;;;;;;20.43;16.53;;;5.80;59.30;;;;;;5040739;28;20217;-73
2022/03/20 06:45:58;;;;;;;21.07;16.50;;;5.80;59.30;;;;;;5047621;28;20229;-73
2022/03/20 06:48:25;;;;;;;16.57;14.80;;;5.80;59.90;;;;;;5045844;28;20188;-73
2022/03/20 06:50:53;;;;;;;22.70;16.67;;;5.90;59.70;;;;;;5034436;28;20208;-75
2022/03/20 06:53:21;;;;;;;20.40;15.73;;;6.20;59.70;;;;;;5040283;28;20217;-76
2022/03/20 06:55:50;;;;;;;22.23;16.13;;;6.30;58.70;;;;;;5039446;28;20214;-72
2022/03/20 06:58:21;;;;;;;21.23;16.33;;;6.20;59.80;;;;;;5046318;28;20201;-72
2022/03/20 07:00:48;;;;;;;21.10;15.93;;;6.30;59.50;;;;;;5036998;28;20205;-72
2022/03/20 07:03:16;;;;;;;21.93;16.70;;;6.40;58.40;;;;;;5046158;28;20691;-72
2022/03/20 07:05:47;;;;;;;18.70;16.63;;;6.40;59.20;;;;;;5045403;28;20209;-73
2022/03/20 07:08:15;;;;;;;20.87;17.30;;;6.50;58.40;;;;;;5042121;28;20209;-72
2022/03/20 07:10:42;;;;;;;20.83;16.40;;;6.30;58.60;;;;;;5048451;28;20212;-73
2022/03/20 07:15:57;;;;;;;21.10;16.97;;;6.20;58.90;;;;;;5042344;28;20197;-73
2022/03/20 07:18:25;;;;;;;19.90;17.27;;;6.30;58.60;;;;;;5045910;28;20216;-75
2022/03/20 07:20:55;;;;;;;21.50;16.90;;;6.20;58.40;;;;;;5041136;28;20190;-73
2022/03/20 07:23:22;;;;;;;23.00;17.40;;;6.30;59.10;;;;;;5049560;28;20227;-73
2022/03/20 07:31:20;;;;;;;20.30;16.93;;;6.70;59.40;;;;;;5049878;28;20201;-73
2022/03/20 07:33:49;;;;;;;19.30;16.83;;;6.60;59.00;;;;;;5049917;28;20224;-73
2022/03/20 07:36:18;;;;;;;21.57;18.07;;;6.50;59.00;;;;;;5047645;28;20206;-73
2022/03/20 07:38:46;;;;;;;22.33;16.43;;;6.50;59.30;;;;;;5046260;28;20203;-73
2022/03/20 07:41:13;;;;;;;19.67;16.90;;;6.50;59.10;;;;;;5053646;28;20554;-73
2022/03/20 07:43:42;;;;;;;21.17;17.57;;;6.80;59.10;;;;;;5043575;28;20591;-73
2022/03/20 07:46:09;;;;;;;18.07;16.13;;;6.90;59.20;;;;;;5041506;28;20212;-73
2022/03/20 07:48:37;;;;;;;22.47;17.73;;;6.80;58.50;;;;;;5049226;28;20194;-73
2022/03/20 07:51:06;;;;;;;22.53;17.27;;;6.70;58.60;;;;;;5054039;28;20198;-73
2022/03/20 07:53:33;;;;;;;20.33;17.40;;;6.70;59.40;;;;;;5049755;28;20218;-73
2022/03/20 07:56:00;;;;;;;22.67;17.83;;;6.60;59.00;;;;;;5053738;28;20201;-73
2022/03/20 07:58:28;;;;;;;20.63;17.27;;;6.70;58.70;;;;;;5047125;28;20198;-73
2022/03/20 08:00:56;;;;;;;20.43;17.73;;;6.60;58.50;;;;;;5050378;28;20208;-73
2022/03/20 08:03:24;;;;;;;20.53;17.07;;;6.60;59.60;;;;;;5052049;28;20225;-73
2022/03/20 08:05:51;;;;;;;21.00;17.40;;;6.50;59.40;;;;;;5051072;28;20218;-73
2022/03/20 08:08:19;;;;;;;22.27;17.80;;;6.50;59.40;;;;;;5049290;28;20667;-73
2022/03/20 08:10:46;;;;;;;23.40;18.10;;;6.60;59.90;;;;;;5051296;28;20209;-73
2022/03/20 08:13:13;;;;;;;20.37;17.00;;;6.50;59.50;;;;;;5048221;28;20236;-73
2022/03/20 08:15:41;;;;;;;20.70;17.87;;;6.30;59.10;;;;;;5052540;28;20190;-73
2022/03/20 08:18:10;;;;;;;23.07;18.27;;;6.40;60.40;;;;;;5051589;28;20195;-73
2022/03/20 08:20:39;;;;;;;21.10;18.23;;;6.50;60.50;;;;;;5050650;28;20193;-73
2022/03/20 08:23:07;;;;;;;21.87;18.37;;;6.50;60.00;;;;;;5049708;28;20688;-73
2022/03/20 08:25:34;;;;;;;23.63;17.27;;;6.60;60.20;;;;;;5051396;28;20233;-73
2022/03/20 08:28:02;;;;;;;23.83;19.27;;;6.70;60.30;;;;;;5056461;28;20687;-73
2022/03/20 08:30:30;;;;;;;21.83;18.10;;;6.50;60.90;;;;;;5051786;28;20228;-73
2022/03/20 08:32:57;;;;;;;23.93;18.57;;;6.70;60.80;;;;;;5048764;28;20583;-73
2022/03/20 08:35:26;;;;;;;20.70;17.60;;;6.80;60.60;;;;;;5050205;28;20206;-73
2022/03/20 08:37:55;;;;;;;22.47;19.20;;;6.80;60.50;;;;;;5047876;28;20210;-73
2022/03/20 08:40:23;;;;;;;21.30;17.90;;;6.90;61.60;;;;;;5060025;28;20602;-73
2022/03/20 08:42:53;;;;;;;22.83;18.63;;;7.10;61.70;;;;;;5050999;28;20219;-73
2022/03/20 08:45:22;;;;;;;22.30;19.03;;;7.20;63.30;;;;;;5048354;28;20229;-73
2022/03/20 08:47:49;;;;;;;22.13;16.87;;;7.40;62.50;;;;;;5052819;28;20205;-73
2022/03/20 08:50:18;;;;;;;23.10;18.87;;;7.20;61.00;;;;;;5051820;28;20203;-73
2022/03/20 08:52:48;;;;;;;25.00;19.47;;;7.20;61.40;;;;;;5051463;28;20226;-73
2022/03/20 08:55:17;;;;;;;23.30;19.87;;;7.20;61.30;;;;;;5051068;28;20197;-73
2022/03/20 08:57:46;;;;;;;25.00;19.80;;;7.40;62.30;;;;;;5050333;28;20216;-73
2022/03/20 09:00:15;;;;;;;26.97;20.70;;;7.40;61.60;;;;;;5049370;28;20202;-73
2022/03/20 09:02:43;;;;;;;26.13;19.33;;;7.40;61.60;;;;;;5050591;28;20209;-73
2022/03/20 09:05:12;;;;;;;28.03;19.33;;;7.30;61.60;;;;;;5051847;28;20206;-73
2022/03/20 09:07:40;;;;;;;23.97;19.83;;;7.60;61.50;;;;;;5050788;28;20213;-73
2022/03/20 09:10:14;;;;;;;23.43;19.53;;;7.70;62.00;;;;;;5044307;28;20198;-73
2022/03/20 09:12:42;;;;;;;25.57;20.30;;;7.90;61.70;;;;;;5047559;28;20217;-74
2022/03/20 09:15:12;;;;;;;23.90;20.13;;;8.10;62.00;;;;;;5053993;28;20210;-74
2022/03/20 09:20:37;;;;;;;27.50;21.20;;;8.00;61.10;;;;;;4984568;28;20232;-73
2022/03/20 09:23:06;;;;;;;25.60;20.53;;;7.90;61.80;;;;;;5020761;28;20703;-73
2022/03/20 09:25:35;;;;;;;24.63;20.37;;;8.20;62.30;;;;;;5042078;28;20214;-74
2022/03/20 09:28:03;;;;;;;26.57;21.27;;;8.40;62.30;;;;;;5043358;28;20197;-73
2022/03/20 09:30:31;;;;;;;24.93;20.07;;;8.40;61.90;;;;;;5050010;28;20198;-74
2022/03/20 09:33:01;;;;;;;26.53;21.23;;;8.50;61.90;;;;;;5047025;28;20233;-73
2022/03/20 09:35:38;;;;;;;26.27;21.50;;;8.60;61.30;;;;;;5047034;28;20198;-74
2022/03/20 09:38:23;;;;;;;27.03;22.33;;;8.70;61.90;;;;;;5042793;28;20201;-75
2022/03/20 09:41:11;;;;;;;27.07;22.40;;;8.80;61.70;;;;;;5043972;28;20198;-76
2022/03/20 09:43:40;;;;;;;27.10;22.17;;;8.90;61.60;;;;;;5047829;28;20218;-74
2022/03/20 09:46:07;;;;;;;28.60;22.93;;;8.90;62.10;;;;;;5052199;28;20229;-74
2022/03/20 09:48:35;;;;;;;28.23;22.07;;;9.00;62.20;;;;;;5050391;28;20213;-74
2022/03/20 09:51:04;;;;;;;29.57;22.80;;;9.10;61.70;;;;;;5052027;28;20205;-74
2022/03/20 09:53:31;;;;;;;28.70;22.57;;;9.20;62.10;;;;;;5038454;28;20211;-74
2022/03/20 09:56:01;;;;;;;24.60;20.80;;;9.10;61.30;;;;;;5052212;28;20201;-74
2022/03/20 09:58:30;;;;;;;26.17;22.20;;;9.10;61.70;;;;;;5050677;28;20273;-74
2022/03/20 10:00:58;;;;;;;31.17;22.60;;;9.20;61.00;;;;;;5049377;28;20217;-74
2022/03/20 10:03:26;;;;;;;24.97;21.10;;;9.30;61.40;;;;;;5051132;28;20221;-74
2022/03/20 10:06:07;;;;;;;28.60;22.83;;;9.50;62.30;;;;;;5050222;28;20225;-73
2022/03/20 10:08:37;;;;;;;28.37;23.47;;;9.60;61.60;;;;;;5045735;28;20213;-75
2022/03/20 10:11:15;;;;;;;27.47;22.63;;;9.70;62.60;;;;;;5048798;28;20213;-74
2022/03/20 10:14:14;;;;;;;27.77;22.63;;;9.70;62.60;;;;;;5048888;28;20236;-74
2022/03/20 10:16:44;;;;;;;27.60;22.67;;;9.90;62.50;;;;;;5061774;28;20190;-74
2022/03/20 10:19:27;;;;;;;28.70;23.97;;;10.00;60.30;;;;;;5047812;28;20206;-74
2022/03/20 10:21:57;;;;;;;27.07;22.77;;;10.00;61.00;;;;;;5050264;28;20213;-74
2022/03/20 10:24:27;;;;;;;28.37;22.83;;;10.10;61.30;;;;;;5035962;28;20219;-73
2022/03/20 10:27:08;;;;;;;28.63;23.80;;;10.30;61.20;;;;;;5040057;28;20219;-74
2022/03/20 10:29:48;;;;;;;27.63;24.07;;;10.40;60.90;;;;;;5047830;28;20213;-74
2022/03/20 10:32:15;;;;;;;27.43;23.53;;;10.40;60.70;;;;;;5043997;28;20592;-74
2022/03/20 10:34:57;;;;;;;29.70;25.80;;;10.30;61.80;;;;;;5042810;28;20218;-74
2022/03/20 10:38:09;;;;;;;29.67;25.17;;;10.50;62.00;;;;;;5040153;28;20210;-74
2022/03/20 10:40:46;;;;;;;28.93;25.50;;;10.70;60.70;;;;;;5038855;28;20198;-74
2022/03/20 10:43:16;;;;;;;28.87;24.73;;;11.00;60.90;;;;;;4987620;28;20219;-74
2022/03/20 10:46:20;;;;;;;27.77;24.03;;;10.70;62.30;;;;;;5009043;28;20227;-74
2022/03/20 10:48:49;;;;;;;29.87;24.83;;;10.80;62.60;;;;;;5007246;28;20590;-75
2022/03/20 10:51:37;;;;;;;30.23;25.63;;;10.50;61.40;;;;;;5021322;28;20192;-74
2022/03/20 10:54:08;;;;;;;30.30;25.67;;;10.70;62.10;;;;;;5022771;28;20589;-74
2022/03/20 10:56:36;;;;;;;26.77;23.17;;;10.90;61.80;;;;;;5005142;28;20208;-74
2022/03/20 10:59:15;;;;;;;28.47;24.43;;;11.00;61.70;;;;;;5004042;28;20211;-74
2022/03/20 11:01:44;;;;;;;33.07;26.27;;;10.80;61.80;;;;;;5005618;28;20214;-74
2022/03/20 11:04:13;;;;;;;28.00;24.87;;;11.00;61.50;;;;;;5022207;28;20227;-74
2022/03/20 11:06:43;;;;;;;28.97;24.90;;;11.00;62.70;;;;;;5009410;28;20223;-76
2022/03/20 11:09:10;;;;;;;31.13;25.90;;;11.20;62.20;;;;;;5002755;28;20204;-74
2022/03/20 11:11:42;;;;;;;31.13;26.38;;;11.50;62.00;;;;;;5005526;28;20223;-74
2022/03/20 11:14:11;;;;;;;32.63;26.88;;;11.70;62.20;;;;;;5002506;28;20566;-74
2022/03/20 11:16:42;;;;;;;31.80;27.05;;;11.80;62.20;;;;;;5007683;28;20676;-74
2022/03/20 11:19:12;;;;;;;28.97;25.17;;;11.60;61.10;;;;;;5020664;28;20215;-74
2022/03/20 11:21:44;;;;;;;32.37;26.07;;;11.60;60.30;;;;;;5010226;28;20211;-74
2022/03/20 11:24:15;;;;;;;34.10;27.60;;;11.70;60.90;;;;;;5009119;28;20692;-74
2022/03/20 11:26:50;;;;;;;33.53;27.23;;;11.40;59.50;;;;;;5014018;28;20656;-74
2022/03/20 11:29:21;;;;;;;32.03;26.33;;;11.40;62.30;;;;;;4999485;28;20844;-75
2022/03/20 11:32:25;;;;;;;33.60;25.97;;;11.40;60.70;;;;;;5006792;28;20692;-74
2022/03/20 11:34:55;;;;;;;40.77;29.30;;;11.30;60.30;;;;;;5004282;28;20217;-74
2022/03/20 11:37:43;;;;;;;36.33;27.33;;;11.20;61.90;;;;;;5007301;28;20198;-75
2022/03/20 11:40:15;;;;;;;34.00;27.27;;;11.30;61.00;;;;;;5012397;28;20192;-74
2022/03/20 11:42:43;;;;;;;34.30;26.27;;;11.10;60.60;;;;;;5028598;28;20219;-75
2022/03/20 11:45:14;;;;;;;33.37;27.23;;;11.20;62.30;;;;;;5000018;28;20207;-75
2022/03/20 11:47:43;;;;;;;31.93;26.60;;;11.20;61.60;;;;;;5018705;28;20219;-75
2022/03/20 11:50:15;;;;;;;35.30;27.30;;;11.30;61.30;;;;;;5025745;28;20200;-74
2022/03/20 11:52:50;;;;;;;33.30;27.43;;;11.20;61.90;;;;;;5011427;28;20203;-74
2022/03/20 11:55:36;;;;;;;34.80;28.37;;;11.30;64.40;;;;;;5010627;28;20191;-74
2022/03/20 11:58:06;;;;;;;32.03;26.33;;;11.50;62.90;;;;;;5009488;28;20207;-74
2022/03/20 12:00:35;;;;;;;34.57;26.97;;;11.40;62.00;;;;;;5014048;28;20195;-75
2022/03/20 12:03:27;;;;;;;32.27;27.40;;;11.50;62.10;;;;;;5006887;28;20227;-74
2022/03/20 12:06:42;;;;;;;34.83;27.70;;;11.40;63.60;;;;;;5006554;28;20219;-75
2022/03/20 12:09:20;;;;;;;32.57;26.60;;;11.40;64.50;;;;;;5007687;28;20203;-74
2022/03/20 12:12:05;;;;;;;37.47;28.70;;;11.30;64.70;;;;;;5007282;28;20204;-74
2022/03/20 12:14:37;;;;;;;33.03;26.63;;;11.20;64.50;;;;;;5015423;28;20227;-75
2022/03/20 12:17:05;;;;;;;34.53;27.47;;;11.20;64.70;;;;;;5004212;28;20199;-74
2022/03/20 12:19:44;;;;;;;33.17;26.40;;;11.20;64.90;;;;;;5013520;28;20195;-74
2022/03/20 12:22:29;;;;;;;33.30;26.70;;;11.30;66.10;;;;;;5008840;28;20199;-73
2022/03/20 12:25:00;;;;;;;36.33;27.23;;;11.40;66.40;;;;;;5005223;28;20199;-73
2022/03/20 12:27:46;;;;;;;35.90;27.50;;;11.40;66.40;;;;;;5023013;28;20224;-73
2022/03/20 12:30:36;;;;;;;31.50;25.63;;;11.40;66.10;;;;;;5000344;28;20204;-73
2022/03/20 12:33:05;;;;;;;36.60;28.37;;;11.40;65.80;;;;;;5001721;28;20216;-73
2022/03/20 12:35:43;;;;;;;34.93;28.83;;;11.50;67.20;;;;;;5007940;28;20200;-73
2022/03/20 12:38:37;;;;;;;39.50;27.90;;;11.50;67.00;;;;;;5006690;28;20199;-73
2022/03/20 12:41:14;;;;;;;34.67;28.67;;;11.60;66.70;;;;;;5017897;28;20208;-73
2022/03/20 12:43:44;;;;;;;33.53;26.73;;;11.60;67.10;;;;;;5011421;28;20219;-73
2022/03/20 12:46:11;;;;;;;35.40;27.50;;;11.70;67.50;;;;;;5008994;28;20219;-73
2022/03/20 12:48:51;;;;;;;36.57;26.27;;;11.70;67.50;;;;;;5009773;28;20254;-73
2022/03/20 12:51:31;;;;;;;33.00;27.60;;;11.80;68.10;;;;;;5025690;28;20204;-73
2022/03/20 12:54:05;;;;;;;35.23;27.70;;;11.90;68.80;;;;;;5004474;28;20232;-73
2022/03/20 12:56:32;;;;;;;32.90;28.33;;;11.90;69.20;;;;;;5027069;28;20195;-73
2022/03/20 12:59:00;;;;;;;35.67;26.90;;;11.90;68.20;;;;;;5001295;28;20207;-73
2022/03/20 13:01:37;;;;;;;32.60;27.63;;;11.90;69.60;;;;;;5009443;28;20659;-73
2022/03/20 13:04:15;;;;;;;33.88;28.10;;;12.00;68.40;;;;;;5005137;28;20620;-73
2022/03/20 13:06:43;;;;;;;37.50;28.45;;;12.00;68.70;;;;;;5007604;28;20226;-73
2022/03/20 13:09:13;;;;;;;34.53;27.93;;;12.00;70.10;;;;;;5000877;28;20188;-73
2022/03/20 13:11:52;;;;;;;36.33;26.67;;;12.00;70.50;;;;;;5010822;28;20203;-73
2022/03/20 13:14:21;;;;;;;39.27;29.50;;;12.10;71.60;;;;;;5014309;28;20235;-73
2022/03/20 13:16:53;;;;;;;33.78;28.00;;;12.10;71.10;;;;;;5006660;28;20196;-73
2022/03/20 13:19:31;;;;;;;35.83;27.07;;;12.10;71.20;;;;;;5023011;28;20600;-73
2022/03/20 13:22:03;;;;;;;33.10;25.20;;;12.20;72.60;;;;;;5005643;28;20202;-73
2022/03/20 13:24:34;;;;;;;33.17;26.60;;;12.30;72.30;;;;;;5023050;28;21006;-73
2022/03/20 13:27:03;;;;;;;30.27;26.57;;;12.40;72.30;;;;;;5008896;28;20686;-73
2022/03/20 13:29:30;;;;;;;31.57;24.43;;;12.40;72.30;;;;;;5019183;28;20208;-73